createdAt,value
2019-03-15T00:01:53.335Z,5.60
2019-03-15T00:04:22.515Z,5.50
2019-03-15T00:06:51.361Z,5.40
2019-03-15T00:09:20.302Z,5.60
2019-03-15T00:11:49.220Z,5.60
2019-03-15T00:14:18.111Z,5.60
2019-03-15T00:16:46.973Z,5.60
2019-03-15T00:19:15.897Z,5.50
2019-03-15T00:21:44.787Z,5.40
2019-03-15T00:24:13.886Z,5.30
2019-03-15T00:26:42.774Z,5.30
2019-03-15T00:29:11.669Z,5.20
2019-03-15T00:31:40.558Z,5.20
2019-03-15T00:34:09.760Z,5.10
2019-03-15T00:36:40.500Z,5.20
2019-03-15T00:39:09.386Z,5.10
2019-03-15T00:41:38.485Z,5.10
2019-03-15T00:44:07.352Z,5.00
2019-03-15T00:46:36.214Z,4.90
2019-03-15T00:49:05.072Z,5.00
2019-03-15T00:51:34.049Z,5.00
2019-03-15T00:54:02.875Z,4.90
2019-03-15T00:56:32.243Z,5.00
2019-03-15T00:59:01.341Z,5.10
2019-03-15T01:01:30.230Z,4.90
2019-03-15T01:03:59.124Z,4.90
2019-03-15T01:06:28.117Z,5.00
2019-03-15T01:08:57.009Z,4.80
2019-03-15T01:11:25.899Z,4.70
2019-03-15T01:13:54.747Z,4.50
2019-03-15T01:16:25.448Z,4.50
2019-03-15T01:18:54.398Z,4.30
2019-03-15T01:21:24.752Z,4.40
2019-03-15T01:23:53.744Z,4.40
2019-03-15T01:26:22.631Z,4.30
2019-03-15T01:28:51.528Z,4.30
2019-03-15T01:31:20.387Z,4.40
2019-03-15T01:33:50.209Z,4.30
2019-03-15T01:36:19.224Z,4.30
2019-03-15T01:38:48.088Z,4.30
2019-03-15T01:41:17.005Z,4.20
2019-03-15T01:43:45.901Z,4.50
2019-03-15T01:46:15.001Z,4.50
2019-03-15T01:48:43.862Z,4.50
2019-03-15T01:51:12.986Z,4.60
2019-03-15T01:53:41.877Z,4.60
2019-03-15T01:56:10.771Z,4.60
2019-03-15T01:58:39.662Z,4.60
2019-03-15T02:01:08.847Z,4.50
2019-03-15T02:03:39.565Z,4.60
2019-03-15T02:06:08.383Z,4.70
2019-03-15T02:08:37.273Z,4.80
2019-03-15T02:11:06.169Z,4.80
2019-03-15T02:13:35.016Z,4.90
2019-03-15T02:16:03.926Z,4.90
2019-03-15T02:18:32.891Z,4.90
2019-03-15T02:21:01.803Z,5.00
2019-03-15T02:23:30.781Z,4.90
2019-03-15T02:25:59.702Z,4.90
2019-03-15T02:28:28.722Z,5.00
2019-03-15T02:30:57.733Z,4.90
2019-03-15T02:33:26.575Z,5.00
2019-03-15T02:35:55.492Z,4.90
2019-03-15T02:38:24.384Z,4.90
2019-03-15T02:40:53.278Z,5.00
2019-03-15T02:43:22.168Z,4.90
2019-03-15T02:45:51.034Z,5.00
2019-03-15T02:48:19.872Z,5.00
2019-03-15T02:50:48.845Z,5.10
2019-03-15T02:53:17.739Z,5.10
2019-03-15T02:55:46.587Z,5.10
2019-03-15T02:58:16.693Z,5.00
2019-03-15T03:00:45.649Z,5.10
2019-03-15T03:03:14.533Z,5.10
2019-03-15T03:05:43.400Z,5.10
2019-03-15T03:08:12.254Z,5.20
2019-03-15T03:10:41.223Z,5.20
2019-03-15T03:13:10.746Z,5.20
2019-03-15T03:15:39.992Z,5.20
2019-03-15T03:18:09.524Z,5.30
2019-03-15T03:20:38.419Z,5.40
2019-03-15T03:23:07.322Z,5.50
2019-03-15T03:25:36.142Z,5.40
2019-03-15T03:28:04.895Z,5.50
2019-03-15T03:30:33.766Z,5.50
2019-03-15T03:33:02.867Z,5.50
2019-03-15T03:35:31.972Z,5.60
2019-03-15T03:38:00.775Z,5.70
2019-03-15T03:40:30.096Z,5.60
2019-03-15T03:42:59.232Z,5.80
2019-03-15T03:45:28.059Z,5.70
2019-03-15T03:47:56.913Z,5.60
2019-03-15T03:50:25.896Z,5.60
2019-03-15T03:52:54.829Z,5.70
2019-03-15T03:55:23.721Z,5.80
2019-03-15T03:57:52.583Z,5.80
2019-03-15T04:00:21.508Z,5.80
2019-03-15T04:02:53.144Z,5.90
2019-03-15T04:05:20.926Z,5.80
2019-03-15T04:07:50.022Z,5.90
2019-03-15T04:10:20.462Z,6.00
2019-03-15T04:12:49.446Z,6.00
2019-03-15T04:15:18.309Z,5.90
2019-03-15T04:17:47.206Z,6.00
2019-03-15T04:20:16.297Z,5.90
2019-03-15T04:22:45.171Z,5.90
2019-03-15T04:25:14.315Z,5.90
2019-03-15T04:27:43.150Z,5.90
2019-03-15T04:30:13.382Z,5.90
2019-03-15T04:32:43.862Z,5.90
2019-03-15T04:35:12.703Z,5.90
2019-03-15T04:37:43.073Z,5.90
2019-03-15T04:40:12.784Z,5.90
2019-03-15T04:42:41.649Z,5.90
2019-03-15T04:45:10.525Z,5.90
2019-03-15T04:47:39.459Z,6.00
2019-03-15T04:50:09.058Z,6.00
2019-03-15T04:52:38.063Z,6.00
2019-03-15T04:55:07.366Z,5.90
2019-03-15T04:57:36.229Z,6.00
2019-03-15T05:00:08.222Z,6.00
2019-03-15T05:02:36.978Z,6.00
2019-03-15T05:05:06.759Z,6.00
2019-03-15T05:07:35.779Z,6.00
2019-03-15T05:10:07.951Z,6.00
2019-03-15T05:12:36.762Z,6.00
2019-03-15T05:15:10.260Z,6.00
2019-03-15T05:17:39.005Z,5.90
2019-03-15T05:20:09.535Z,6.00
2019-03-15T05:22:38.458Z,5.90
2019-03-15T05:25:08.405Z,5.60
2019-03-15T05:27:37.294Z,5.50
2019-03-15T05:30:09.475Z,5.50
2019-03-15T05:32:38.281Z,5.50
2019-03-15T05:35:07.478Z,5.60
2019-03-15T05:37:36.317Z,5.50
2019-03-15T05:40:06.853Z,5.50
2019-03-15T05:42:35.751Z,5.40
2019-03-15T05:45:06.482Z,5.40
2019-03-15T05:47:35.288Z,5.50
2019-03-15T05:50:06.462Z,5.40
2019-03-15T05:52:35.326Z,5.40
2019-03-15T05:55:09.209Z,5.50
2019-03-15T05:57:38.098Z,5.50
2019-03-15T06:00:13.072Z,5.60
2019-03-15T06:02:43.587Z,5.60
2019-03-15T06:05:12.644Z,5.60
2019-03-15T06:07:41.532Z,5.60
2019-03-15T06:10:12.407Z,5.60
2019-03-15T06:12:41.193Z,5.70
2019-03-15T06:15:11.333Z,5.70
2019-03-15T06:17:40.632Z,5.70
2019-03-15T06:20:11.160Z,5.80
2019-03-15T06:22:40.051Z,5.80
2019-03-15T06:25:10.797Z,5.80
2019-03-15T06:27:40.104Z,5.80
2019-03-15T06:30:13.669Z,5.80
2019-03-15T06:32:42.635Z,5.80
2019-03-15T06:35:11.885Z,5.80
2019-03-15T06:37:42.567Z,5.80
2019-03-15T06:40:14.167Z,5.90
2019-03-15T06:42:42.657Z,5.90
2019-03-15T06:45:15.236Z,6.00
2019-03-15T06:47:44.257Z,6.00
2019-03-15T06:50:13.736Z,6.00
2019-03-15T06:52:43.117Z,6.00
2019-03-15T06:55:12.689Z,6.00
2019-03-15T06:57:41.505Z,6.10
2019-03-15T07:00:15.619Z,6.10
2019-03-15T07:02:44.516Z,6.20
2019-03-15T07:05:13.553Z,6.20
2019-03-15T07:07:42.633Z,6.20
2019-03-15T07:10:12.246Z,6.20
2019-03-15T07:12:41.238Z,6.30
2019-03-15T07:15:14.431Z,6.20
2019-03-15T07:17:43.070Z,6.20
2019-03-15T07:20:14.267Z,6.30
2019-03-15T07:22:43.153Z,6.30
2019-03-15T07:25:12.012Z,6.30
2019-03-15T07:27:42.668Z,6.40
2019-03-15T07:30:13.384Z,6.40
2019-03-15T07:32:42.322Z,6.40
2019-03-15T07:35:11.407Z,6.40
2019-03-15T07:37:40.208Z,6.40
2019-03-15T07:40:10.679Z,6.60
2019-03-15T07:42:39.479Z,6.70
2019-03-15T07:45:10.657Z,6.70
2019-03-15T07:47:40.165Z,6.90
2019-03-15T07:50:14.364Z,6.90
2019-03-15T07:52:43.656Z,6.70
2019-03-15T07:55:12.781Z,6.70
2019-03-15T07:57:41.607Z,6.70
2019-03-15T08:00:16.093Z,6.60
2019-03-15T08:02:45.069Z,6.60
2019-03-15T08:05:13.949Z,6.50
2019-03-15T08:07:45.672Z,6.50
2019-03-15T08:10:14.081Z,6.50
2019-03-15T08:12:43.007Z,6.50
2019-03-15T08:15:13.332Z,6.50
2019-03-15T08:17:42.224Z,6.50
2019-03-15T08:20:13.238Z,6.50
2019-03-15T08:22:42.353Z,6.50
2019-03-15T08:25:12.663Z,6.50
2019-03-15T08:27:41.438Z,6.50
2019-03-15T08:30:15.694Z,6.50
2019-03-15T08:32:44.558Z,6.40
2019-03-15T08:35:13.758Z,6.40
2019-03-15T08:37:42.769Z,6.30
2019-03-15T08:40:14.450Z,6.30
2019-03-15T08:42:43.203Z,6.30
2019-03-15T08:45:19.462Z,6.20
2019-03-15T08:47:48.639Z,6.30
2019-03-15T08:50:18.913Z,6.40
2019-03-15T08:52:47.679Z,6.40
2019-03-15T08:55:16.509Z,6.40
2019-03-15T08:57:45.264Z,6.40
2019-03-15T09:00:17.219Z,6.30
2019-03-15T09:02:46.107Z,6.30
2019-03-15T09:05:15.670Z,6.20
2019-03-15T09:07:44.475Z,6.20
2019-03-15T09:10:23.106Z,6.20
2019-03-15T09:12:48.720Z,6.20
2019-03-15T09:15:17.868Z,6.20
2019-03-15T09:17:46.733Z,6.30
2019-03-15T09:20:16.484Z,6.30
2019-03-15T09:22:45.607Z,6.30
2019-03-15T09:25:19.871Z,6.20
2019-03-15T09:27:47.975Z,6.30
2019-03-15T09:30:23.648Z,6.40
2019-03-15T09:32:48.576Z,6.40
2019-03-15T09:35:19.042Z,6.50
2019-03-15T09:37:47.999Z,6.40
2019-03-15T09:40:17.296Z,6.40
2019-03-15T09:42:46.328Z,6.30
2019-03-15T09:45:16.770Z,6.40
2019-03-15T09:47:46.060Z,6.40
2019-03-15T09:50:33.182Z,6.40
2019-03-15T09:52:50.702Z,6.40
2019-03-15T09:55:32.163Z,6.40
2019-03-15T09:57:50.124Z,6.30
2019-03-15T10:00:22.102Z,6.40
2019-03-15T10:02:51.190Z,6.40
2019-03-15T10:05:20.075Z,6.40
2019-03-15T10:07:48.970Z,6.30
2019-03-15T10:10:19.179Z,6.30
2019-03-15T10:12:48.568Z,6.30
2019-03-15T10:15:18.229Z,6.20
2019-03-15T10:17:47.533Z,6.30
2019-03-15T10:20:16.573Z,6.20
2019-03-15T10:22:45.831Z,6.20
2019-03-15T10:25:18.379Z,6.30
2019-03-15T10:27:47.329Z,6.30
2019-03-15T10:30:17.876Z,6.30
2019-03-15T10:32:46.799Z,6.30
2019-03-15T10:35:15.676Z,6.40
2019-03-15T10:37:44.782Z,6.40
2019-03-15T10:40:18.589Z,6.40
2019-03-15T10:42:47.483Z,6.40
2019-03-15T10:45:16.561Z,6.30
2019-03-15T10:47:45.545Z,6.30
2019-03-15T10:50:16.284Z,6.30
2019-03-15T10:52:45.314Z,6.30
2019-03-15T10:55:14.399Z,6.30
2019-03-15T10:57:43.500Z,6.30
2019-03-15T11:00:18.538Z,6.40
2019-03-15T11:02:47.426Z,6.40
2019-03-15T11:05:16.726Z,6.40
2019-03-15T11:07:45.694Z,6.40
2019-03-15T11:10:14.918Z,6.40
2019-03-15T11:12:43.807Z,6.40
2019-03-15T11:15:16.395Z,6.40
2019-03-15T11:17:45.280Z,6.40
2019-03-15T11:20:14.586Z,6.40
2019-03-15T11:22:43.516Z,6.40
2019-03-15T11:25:12.891Z,6.40
2019-03-15T11:27:42.075Z,6.50
2019-03-15T11:30:14.867Z,6.50
2019-03-15T11:32:43.704Z,6.50
2019-03-15T11:35:12.924Z,6.60
2019-03-15T11:37:41.781Z,6.60
2019-03-15T11:40:18.903Z,6.60
2019-03-15T11:42:47.103Z,6.60
2019-03-15T11:45:16.275Z,6.70
2019-03-15T11:48:02.079Z,6.70
2019-03-15T11:50:20.534Z,6.80
2019-03-15T11:52:49.433Z,6.80
2019-03-15T11:55:18.292Z,6.90
2019-03-15T11:57:47.213Z,6.90
2019-03-15T12:00:19.482Z,7.00
2019-03-15T12:02:48.371Z,7.00
2019-03-15T12:05:17.469Z,7.10
2019-03-15T12:07:46.360Z,7.10
2019-03-15T12:10:18.736Z,7.10
2019-03-15T12:12:47.501Z,7.20
2019-03-15T12:15:20.143Z,7.20
2019-03-15T12:17:49.204Z,7.20
2019-03-15T12:20:17.914Z,7.30
2019-03-15T12:22:46.835Z,7.30
2019-03-15T12:25:15.978Z,7.40
2019-03-15T12:27:44.876Z,7.40
2019-03-15T12:30:16.021Z,7.50
2019-03-15T12:32:44.985Z,7.60
2019-03-15T12:35:14.449Z,7.70
2019-03-15T12:37:43.514Z,7.70
2019-03-15T12:40:19.063Z,7.80
2019-03-15T12:42:48.027Z,7.90
2019-03-15T12:45:17.146Z,8.00
2019-03-15T12:47:46.038Z,8.10
2019-03-15T12:50:15.920Z,8.20
2019-03-15T12:52:48.715Z,8.20
2019-03-15T12:55:16.019Z,8.30
2019-03-15T12:57:45.091Z,8.30
2019-03-15T13:00:21.245Z,8.50
2019-03-15T13:02:50.249Z,8.50
2019-03-15T13:05:19.347Z,8.70
2019-03-15T13:07:48.444Z,8.80
2019-03-15T13:10:19.796Z,9.00
2019-03-15T13:12:48.886Z,9.10
2019-03-15T13:15:18.395Z,9.20
2019-03-15T13:17:47.486Z,9.20
2019-03-15T13:20:17.418Z,9.20
2019-03-15T13:22:46.500Z,9.40
2019-03-15T13:25:15.392Z,9.50
2019-03-15T13:27:44.493Z,9.60
2019-03-15T13:30:17.258Z,9.60
2019-03-15T13:32:46.575Z,9.60
2019-03-15T13:35:16.081Z,9.70
2019-03-15T13:37:45.381Z,9.70
2019-03-15T13:40:15.815Z,9.60
2019-03-15T13:42:44.922Z,9.70
2019-03-15T13:45:14.857Z,9.80
2019-03-15T13:47:44.025Z,10.00
2019-03-15T13:50:17.821Z,10.10
2019-03-15T13:52:46.927Z,10.20
2019-03-15T13:55:16.228Z,10.30
2019-03-15T13:57:45.326Z,10.40
2019-03-15T14:00:18.626Z,10.50
2019-03-15T14:02:47.755Z,10.60
2019-03-15T14:05:17.018Z,10.50
2019-03-15T14:07:46.319Z,10.60
2019-03-15T14:10:17.455Z,10.60
2019-03-15T14:12:46.560Z,10.60
2019-03-15T14:15:20.531Z,10.50
2019-03-15T14:17:49.671Z,10.40
2019-03-15T14:20:18.766Z,10.50
2019-03-15T14:22:48.276Z,10.40
2019-03-15T14:25:22.698Z,10.50
2019-03-15T14:27:51.792Z,10.50
2019-03-15T14:30:21.133Z,10.50
2019-03-15T14:32:50.567Z,10.60
2019-03-15T14:35:19.695Z,10.70
2019-03-15T14:37:49.047Z,10.70
2019-03-15T14:40:18.300Z,10.70
2019-03-15T14:42:47.430Z,10.70
2019-03-15T14:45:17.124Z,10.70
2019-03-15T14:47:46.408Z,10.70
2019-03-15T14:50:15.914Z,10.70
2019-03-15T14:52:45.017Z,10.80
2019-03-15T14:55:15.563Z,10.70
2019-03-15T14:57:52.031Z,10.80
2019-03-15T15:00:19.384Z,10.90
2019-03-15T15:02:49.037Z,10.90
2019-03-15T15:05:18.193Z,10.90
2019-03-15T15:07:48.478Z,10.90
2019-03-15T15:10:18.656Z,10.90
2019-03-15T15:12:49.167Z,10.80
2019-03-15T15:15:21.691Z,10.80
2019-03-15T15:17:52.369Z,10.70
2019-03-15T15:20:21.122Z,10.70
2019-03-15T15:22:50.361Z,10.60
2019-03-15T15:25:19.710Z,10.60
2019-03-15T15:28:03.429Z,10.60
2019-03-15T15:30:21.022Z,10.60
2019-03-15T15:32:50.237Z,10.50
2019-03-15T15:35:19.449Z,10.50
2019-03-15T15:37:49.641Z,10.50
2019-03-15T15:40:19.598Z,10.40
2019-03-15T15:42:48.861Z,10.40
2019-03-15T15:45:18.163Z,10.40
2019-03-15T15:47:48.122Z,10.40
2019-03-15T15:50:17.391Z,10.40
2019-03-15T15:52:46.538Z,10.50
2019-03-15T15:55:16.526Z,10.40
2019-03-15T15:57:45.691Z,10.50
2019-03-15T16:00:18.981Z,10.40
2019-03-15T16:02:48.237Z,10.40
2019-03-15T16:05:17.706Z,10.50
2019-03-15T16:07:46.905Z,10.50
2019-03-15T16:10:18.276Z,10.50
2019-03-15T16:12:47.442Z,10.60
2019-03-15T16:15:18.388Z,10.60
2019-03-15T16:17:47.888Z,10.60
2019-03-15T16:20:16.985Z,10.50
2019-03-15T16:22:46.079Z,10.60
2019-03-15T16:25:15.258Z,10.60
2019-03-15T16:27:44.479Z,10.50
2019-03-15T16:30:18.498Z,10.40
2019-03-15T16:32:47.792Z,10.40
2019-03-15T16:35:17.713Z,10.40
2019-03-15T16:37:46.806Z,10.40
2019-03-15T16:40:16.723Z,10.40
2019-03-15T16:42:46.021Z,10.50
2019-03-15T16:45:28.508Z,10.40
2019-03-15T16:47:57.734Z,10.40
2019-03-15T16:50:27.033Z,10.50
2019-03-15T16:52:56.166Z,10.60
2019-03-15T16:55:25.467Z,10.50
2019-03-15T16:57:54.942Z,10.50
2019-03-15T17:00:23.960Z,10.60
2019-03-15T17:02:54.486Z,10.50
2019-03-15T17:05:23.998Z,10.60
2019-03-15T17:07:53.405Z,10.50
2019-03-15T17:10:23.815Z,10.50
2019-03-15T17:12:55.603Z,10.50
2019-03-15T17:15:28.709Z,10.50
2019-03-15T17:17:58.083Z,10.40
2019-03-15T17:20:27.254Z,10.40
2019-03-15T17:22:56.412Z,10.50
2019-03-15T17:25:25.728Z,10.50
2019-03-15T17:27:55.063Z,10.60
2019-03-15T17:30:25.381Z,10.60
2019-03-15T17:32:56.257Z,10.70
2019-03-15T17:35:25.417Z,10.70
2019-03-15T17:37:54.710Z,10.70
2019-03-15T17:40:23.918Z,10.70
2019-03-15T17:42:54.569Z,10.70
2019-03-15T17:45:23.857Z,10.70
2019-03-15T17:47:53.154Z,10.60
2019-03-15T17:50:24.299Z,10.60
2019-03-15T17:52:53.628Z,10.60
2019-03-15T17:55:22.834Z,10.60
2019-03-15T17:57:52.980Z,10.50
2019-03-15T18:00:44.444Z,10.50
2019-03-15T18:03:21.565Z,10.50
2019-03-15T18:05:46.023Z,10.50
2019-03-15T18:08:15.189Z,10.50
2019-03-15T18:10:44.526Z,10.40
2019-03-15T18:13:15.456Z,10.40
2019-03-15T18:15:44.555Z,10.40
2019-03-15T18:18:13.857Z,10.30
2019-03-15T18:20:43.159Z,10.30
2019-03-15T18:23:12.436Z,10.40
2019-03-15T18:25:41.828Z,10.50
2019-03-15T18:28:11.162Z,10.50
2019-03-15T18:30:40.477Z,10.50
2019-03-15T18:33:09.676Z,10.50
2019-03-15T18:35:39.491Z,10.50
2019-03-15T18:38:11.443Z,10.60
2019-03-15T18:40:40.746Z,10.60
2019-03-15T18:43:10.105Z,10.70
2019-03-15T18:45:40.675Z,10.80
2019-03-15T18:48:09.899Z,10.80
2019-03-15T18:50:40.823Z,10.80
2019-03-15T18:53:10.099Z,10.70
2019-03-15T18:55:39.357Z,10.70
2019-03-15T18:58:09.157Z,10.70
2019-03-15T19:00:38.275Z,10.70
2019-03-15T19:03:08.012Z,10.60
2019-03-15T19:05:37.547Z,10.70
2019-03-15T19:08:06.751Z,10.60
2019-03-15T19:10:38.542Z,10.60
2019-03-15T19:13:07.100Z,10.60
2019-03-15T19:15:36.116Z,10.60
2019-03-15T19:18:05.427Z,10.60
2019-03-15T19:20:34.516Z,10.60
2019-03-15T19:23:04.192Z,10.50
2019-03-15T19:25:35.760Z,10.50
2019-03-15T19:28:04.802Z,10.50
2019-03-15T19:30:33.768Z,10.60
2019-03-15T19:33:03.020Z,10.50
2019-03-15T19:35:33.710Z,10.40
2019-03-15T19:38:03.316Z,10.50
2019-03-15T19:40:34.120Z,10.40
2019-03-15T19:43:03.219Z,10.50
2019-03-15T19:45:32.821Z,10.40
2019-03-15T19:48:06.410Z,10.40
2019-03-15T19:50:35.576Z,10.50
2019-03-15T19:53:04.758Z,10.40
2019-03-15T19:55:33.762Z,10.50
2019-03-15T19:58:03.152Z,10.60
2019-03-15T20:00:32.727Z,10.50
2019-03-15T20:03:02.078Z,10.50
2019-03-15T20:05:31.260Z,10.50
2019-03-15T20:08:03.311Z,10.60
2019-03-15T20:10:33.524Z,10.40
2019-03-15T20:13:07.892Z,10.50
2019-03-15T20:15:37.416Z,10.50
2019-03-15T20:18:13.273Z,10.50
2019-03-15T20:20:42.936Z,10.50
2019-03-15T20:23:13.482Z,10.40
2019-03-15T20:25:42.842Z,10.50
2019-03-15T20:28:11.978Z,10.40
2019-03-15T20:30:51.233Z,10.50
2019-03-15T20:33:12.491Z,10.50
2019-03-15T20:35:41.590Z,10.50
2019-03-15T20:38:11.093Z,10.40
2019-03-15T20:40:43.607Z,10.50
2019-03-15T20:43:12.872Z,10.60
2019-03-15T20:45:43.708Z,10.60
2019-03-15T20:48:14.347Z,10.50
2019-03-15T20:50:47.063Z,10.70
2019-03-15T20:53:17.209Z,10.70
2019-03-15T20:55:46.578Z,10.80
2019-03-15T20:58:17.027Z,10.70
2019-03-15T21:00:46.280Z,10.70
2019-03-15T21:03:15.477Z,10.80
2019-03-15T21:05:44.755Z,10.80
2019-03-15T21:08:14.691Z,10.70
2019-03-15T21:10:43.791Z,10.80
2019-03-15T21:13:13.111Z,10.70
2019-03-15T21:15:42.271Z,10.90
2019-03-15T21:18:11.495Z,10.80
2019-03-15T21:20:40.895Z,10.80
2019-03-15T21:23:10.202Z,10.80
2019-03-15T21:25:39.493Z,10.80
2019-03-15T21:28:08.795Z,10.80
2019-03-15T21:30:47.935Z,10.80
2019-03-15T21:33:08.632Z,10.90
2019-03-15T21:35:37.883Z,10.90
2019-03-15T21:38:07.251Z,10.90
2019-03-15T21:40:36.186Z,10.90
2019-03-15T21:43:05.280Z,10.80
2019-03-15T21:45:34.229Z,10.80
2019-03-15T21:48:03.469Z,10.80
2019-03-15T21:50:32.717Z,10.90
2019-03-15T21:53:02.326Z,10.70
2019-03-15T21:55:31.829Z,10.80
2019-03-15T21:58:00.856Z,10.70
2019-03-15T22:00:30.161Z,10.60
2019-03-15T22:02:59.326Z,10.60
2019-03-15T22:05:28.222Z,10.70
2019-03-15T22:07:57.313Z,10.80
2019-03-15T22:10:26.420Z,10.70
2019-03-15T22:12:55.520Z,10.70
2019-03-15T22:15:24.398Z,10.70
2019-03-15T22:17:53.546Z,10.70
2019-03-15T22:20:22.901Z,10.70
2019-03-15T22:22:52.097Z,10.70
2019-03-15T22:25:21.093Z,10.70
2019-03-15T22:27:50.433Z,10.70
2019-03-15T22:30:20.104Z,10.70
2019-03-15T22:32:48.997Z,10.70
2019-03-15T22:35:17.968Z,10.70
2019-03-15T22:37:46.880Z,10.60
2019-03-15T22:40:17.468Z,10.60
2019-03-15T22:42:46.511Z,10.70
2019-03-15T22:45:15.789Z,10.70
2019-03-15T22:47:44.808Z,10.70
2019-03-15T22:50:14.782Z,10.80
2019-03-15T22:52:43.695Z,10.80
2019-03-15T22:55:12.712Z,10.70
2019-03-15T22:57:41.687Z,10.70
2019-03-15T23:00:19.625Z,10.90
2019-03-15T23:02:48.725Z,11.00
2019-03-15T23:05:18.211Z,10.90
2019-03-15T23:07:47.078Z,10.90
2019-03-15T23:10:16.073Z,10.90
2019-03-15T23:12:45.039Z,10.90
2019-03-15T23:15:13.985Z,11.00
2019-03-15T23:17:42.880Z,11.00
2019-03-15T23:20:13.098Z,11.10
2019-03-15T23:22:42.101Z,11.00
2019-03-15T23:25:11.489Z,10.90
2019-03-15T23:27:40.492Z,11.00
2019-03-15T23:30:12.466Z,10.90
2019-03-15T23:32:41.323Z,11.00
2019-03-15T23:35:10.136Z,10.90
2019-03-15T23:37:39.003Z,10.90
2019-03-15T23:40:15.982Z,10.90
2019-03-15T23:42:44.904Z,10.90
2019-03-15T23:45:14.205Z,10.90
2019-03-15T23:47:43.299Z,10.90
2019-03-15T23:50:15.473Z,10.90
2019-03-15T23:52:44.332Z,10.90
2019-03-15T23:55:14.467Z,10.80
2019-03-15T23:57:43.422Z,10.80
